createdAt,value
2023-04-24T00:02:19.853Z,54.25
2023-04-24T00:04:46.389Z,54.45
2023-04-24T00:07:12.997Z,54.41
2023-04-24T00:09:39.304Z,54.86
2023-04-24T00:12:05.578Z,54.75
2023-04-24T00:14:31.915Z,54.90
2023-04-24T00:16:58.320Z,55.19
2023-04-24T00:19:24.638Z,57.06
2023-04-24T00:21:51.254Z,57.95
2023-04-24T00:24:17.701Z,56.61
2023-04-24T00:26:44.050Z,57.41
2023-04-24T00:29:10.427Z,56.85
2023-04-24T00:31:36.818Z,56.30
2023-04-24T00:34:03.789Z,56.22
2023-04-24T00:36:30.115Z,56.48
2023-04-24T00:38:56.818Z,56.68
2023-04-24T00:41:24.657Z,56.86
2023-04-24T00:43:51.920Z,56.96
2023-04-24T00:46:18.287Z,56.72
2023-04-24T00:48:44.776Z,56.76
2023-04-24T00:51:11.090Z,56.77
2023-04-24T00:53:37.523Z,57.23
2023-04-24T00:56:04.920Z,57.22
2023-04-24T00:58:31.440Z,57.15
2023-04-24T01:00:58.924Z,57.59
2023-04-24T01:03:26.821Z,57.49
2023-04-24T01:05:54.806Z,57.64
2023-04-24T01:08:23.638Z,58.09
2023-04-24T01:10:51.259Z,58.32
2023-04-24T01:13:21.202Z,58.10
2023-04-24T01:15:47.832Z,58.38
2023-04-24T01:18:14.441Z,58.47
2023-04-24T01:20:41.871Z,58.79
2023-04-24T01:23:08.313Z,58.51
2023-04-24T01:25:34.858Z,58.54
2023-04-24T01:28:01.608Z,58.96
2023-04-24T01:30:28.111Z,58.89
2023-04-24T01:32:55.631Z,59.07
2023-04-24T01:35:22.016Z,59.03
2023-04-24T01:37:48.331Z,59.08
2023-04-24T01:40:14.750Z,59.19
2023-04-24T01:42:41.861Z,59.17
2023-04-24T01:45:10.476Z,59.18
2023-04-24T01:47:37.030Z,59.51
2023-04-24T01:50:03.996Z,59.39
2023-04-24T01:52:31.981Z,59.53
2023-04-24T01:55:00.023Z,59.57
2023-04-24T01:57:26.574Z,59.72
2023-04-24T01:59:52.953Z,59.50
2023-04-24T02:02:19.505Z,59.53
2023-04-24T02:04:45.950Z,59.77
2023-04-24T02:07:15.338Z,60.33
2023-04-24T02:09:41.862Z,60.28
2023-04-24T02:12:08.503Z,60.11
2023-04-24T02:14:34.801Z,59.88
2023-04-24T02:17:01.136Z,59.89
2023-04-24T02:19:28.645Z,60.21
2023-04-24T02:21:55.036Z,61.64
2023-04-24T02:24:21.396Z,62.15
2023-04-24T02:26:47.808Z,63.88
2023-04-24T02:29:14.198Z,63.55
2023-04-24T02:31:41.290Z,63.71
2023-04-24T02:34:07.585Z,62.51
2023-04-24T02:36:33.992Z,61.39
2023-04-24T02:39:00.337Z,61.10
2023-04-24T02:41:26.697Z,60.90
2023-04-24T02:43:53.070Z,60.80
2023-04-24T02:46:19.511Z,60.78
2023-04-24T02:48:45.887Z,61.24
2023-04-24T02:51:12.192Z,61.03
2023-04-24T02:53:38.541Z,60.88
2023-04-24T02:56:04.911Z,61.87
2023-04-24T02:58:31.281Z,62.35
2023-04-24T03:00:58.021Z,62.48
2023-04-24T03:03:24.461Z,62.80
2023-04-24T03:05:50.875Z,62.10
2023-04-24T03:08:17.485Z,63.48
2023-04-24T03:10:44.830Z,64.03
2023-04-24T03:13:16.260Z,64.98
2023-04-24T03:15:42.685Z,64.87
2023-04-24T03:18:09.084Z,64.43
2023-04-24T03:20:35.442Z,64.54
2023-04-24T03:23:02.242Z,64.95
2023-04-24T03:25:29.088Z,64.81
2023-04-24T03:27:55.773Z,63.98
2023-04-24T03:30:42.330Z,64.03
2023-04-24T03:33:08.956Z,63.78
2023-04-24T03:35:37.677Z,63.53
2023-04-24T03:38:07.804Z,62.38
2023-04-24T03:40:52.732Z,62.05
2023-04-24T03:43:42.088Z,61.88
2023-04-24T03:46:08.701Z,61.88
2023-04-24T03:48:37.963Z,61.89
2023-04-24T03:51:04.471Z,61.81
2023-04-24T03:53:31.372Z,62.11
2023-04-24T03:55:58.951Z,62.03
2023-04-24T03:58:25.362Z,61.80
2023-04-24T04:00:51.886Z,62.40
2023-04-24T04:03:36.872Z,61.95
2023-04-24T04:06:03.567Z,62.91
2023-04-24T04:08:30.065Z,64.77
2023-04-24T04:10:56.703Z,65.51
2023-04-24T04:13:23.253Z,65.33
2023-04-24T04:15:49.590Z,65.56
2023-04-24T04:18:16.478Z,65.38
2023-04-24T04:20:43.384Z,65.06
2023-04-24T04:23:11.501Z,64.31
2023-04-24T04:26:01.262Z,63.63
2023-04-24T04:28:36.993Z,63.03
2023-04-24T04:31:03.385Z,62.94
2023-04-24T04:33:29.975Z,62.50
2023-04-24T04:35:56.697Z,61.61
2023-04-24T04:38:24.468Z,61.25
2023-04-24T04:40:58.662Z,60.95
2023-04-24T04:43:27.080Z,60.75
2023-04-24T04:45:53.904Z,60.50
2023-04-24T04:48:46.531Z,60.29
2023-04-24T04:51:12.836Z,60.03
2023-04-24T04:53:39.675Z,59.86
2023-04-24T04:56:06.750Z,59.92
2023-04-24T04:58:39.964Z,59.89
2023-04-24T05:01:08.160Z,59.53
2023-04-24T05:03:39.268Z,59.07
2023-04-24T05:06:08.890Z,58.79
2023-04-24T05:08:37.536Z,58.57
2023-04-24T05:11:13.312Z,58.73
2023-04-24T05:13:40.958Z,58.78
2023-04-24T05:16:18.040Z,58.17
2023-04-24T05:18:44.654Z,57.99
2023-04-24T05:21:13.597Z,57.80
2023-04-24T05:23:43.261Z,57.66
2023-04-24T05:26:10.670Z,57.73
2023-04-24T05:28:42.552Z,57.85
2023-04-24T05:31:10.630Z,57.70
2023-04-24T05:33:37.386Z,57.41
2023-04-24T05:36:03.972Z,57.28
2023-04-24T05:38:30.508Z,57.10
2023-04-24T05:40:57.015Z,57.08
2023-04-24T05:43:25.982Z,56.90
2023-04-24T05:45:55.746Z,56.86
2023-04-24T05:48:22.127Z,57.07
2023-04-24T05:50:48.763Z,56.82
2023-04-24T05:53:15.066Z,56.79
2023-04-24T05:55:41.442Z,56.96
2023-04-24T05:58:07.824Z,56.45
2023-04-24T06:00:35.350Z,56.46
2023-04-24T06:03:05.137Z,56.24
2023-04-24T06:05:41.004Z,56.30
2023-04-24T06:08:07.432Z,56.26
2023-04-24T06:10:36.788Z,56.52
2023-04-24T06:13:05.619Z,56.06
2023-04-24T06:15:33.585Z,56.28
2023-04-24T06:18:20.349Z,55.68
2023-04-24T06:20:55.373Z,55.36
2023-04-24T06:23:29.915Z,55.15
2023-04-24T06:25:56.379Z,55.26
2023-04-24T06:28:22.900Z,54.93
2023-04-24T06:30:49.277Z,54.67
2023-04-24T06:33:21.113Z,54.56
2023-04-24T06:35:48.771Z,54.41
2023-04-24T06:38:15.164Z,54.40
2023-04-24T06:40:41.649Z,54.19
2023-04-24T06:43:08.094Z,53.94
2023-04-24T06:45:34.586Z,53.75
2023-04-24T06:48:01.324Z,53.63
2023-04-24T06:50:27.696Z,53.40
2023-04-24T06:52:54.014Z,53.37
2023-04-24T06:55:20.572Z,52.93
2023-04-24T06:57:49.272Z,52.06
2023-04-24T07:00:15.719Z,52.13
2023-04-24T07:02:42.163Z,52.24
2023-04-24T07:05:08.764Z,52.39
2023-04-24T07:07:35.228Z,51.99
2023-04-24T07:10:01.768Z,51.27
2023-04-24T07:12:28.263Z,51.32
2023-04-24T07:14:55.166Z,50.99
2023-04-24T07:17:24.082Z,50.77
2023-04-24T07:19:50.924Z,48.45
2023-04-24T07:22:17.741Z,47.00
2023-04-24T07:24:44.825Z,45.71
2023-04-24T07:27:11.244Z,43.56
2023-04-24T07:29:37.678Z,43.72
2023-04-24T07:32:04.444Z,44.87
2023-04-24T07:34:33.759Z,44.93
2023-04-24T07:37:00.361Z,44.92
2023-04-24T07:39:26.862Z,45.29
2023-04-24T07:41:55.651Z,42.81
2023-04-24T07:44:22.220Z,42.51
2023-04-24T07:46:48.696Z,42.76
2023-04-24T07:49:16.986Z,41.07
2023-04-24T07:51:45.499Z,41.20
2023-04-24T07:54:23.430Z,41.87
2023-04-24T07:56:49.979Z,41.38
2023-04-24T07:59:16.466Z,39.02
2023-04-24T08:01:43.113Z,39.10
2023-04-24T08:04:09.904Z,39.10
2023-04-24T08:06:36.462Z,38.34
2023-04-24T08:09:03.042Z,36.03
2023-04-24T08:11:30.049Z,36.43
2023-04-24T08:14:10.117Z,35.76
2023-04-24T08:16:37.112Z,37.59
2023-04-24T08:19:04.005Z,37.48
2023-04-24T08:21:30.440Z,37.85
2023-04-24T08:23:57.409Z,37.74
2023-04-24T08:26:24.036Z,37.05
2023-04-24T08:28:50.605Z,38.05
2023-04-24T08:31:17.275Z,38.66
2023-04-24T08:51:57.028Z,36.22
2023-04-24T08:54:26.088Z,36.33
2023-04-24T08:56:54.108Z,34.33
2023-04-24T08:59:32.589Z,31.77
2023-04-24T09:02:01.574Z,32.53
2023-04-24T09:04:29.572Z,31.80
2023-04-24T09:06:57.200Z,31.74
2023-04-24T09:09:24.493Z,31.71
2023-04-24T09:11:51.616Z,31.53
2023-04-24T09:14:19.342Z,34.25
2023-04-24T09:16:46.650Z,34.56
2023-04-24T09:19:13.195Z,30.60
2023-04-24T09:21:39.906Z,32.34
2023-04-24T09:24:07.713Z,33.12
2023-04-24T09:26:37.405Z,33.14
2023-04-24T09:29:04.760Z,33.35
2023-04-24T09:31:31.547Z,31.92
2023-04-24T09:34:02.024Z,29.20
2023-04-24T09:36:29.223Z,30.37
2023-04-24T09:39:08.652Z,30.91
2023-04-24T09:41:45.096Z,30.59
2023-04-24T09:44:14.535Z,30.22
2023-04-24T09:47:01.280Z,30.56
2023-04-24T09:49:29.575Z,28.49
2023-04-24T09:52:22.404Z,28.69
2023-04-24T09:55:14.187Z,30.05
2023-04-24T09:57:47.716Z,28.32
2023-04-24T10:00:17.748Z,30.33
2023-04-24T10:02:50.047Z,31.74
2023-04-24T10:05:23.565Z,31.84
2023-04-24T10:08:12.737Z,32.72
2023-04-24T10:10:40.688Z,30.79
2023-04-24T10:13:16.297Z,31.52
2023-04-24T10:15:48.667Z,31.20
2023-04-24T10:18:15.997Z,31.75
2023-04-24T10:20:42.514Z,31.76
2023-04-24T10:23:28.245Z,29.79
2023-04-24T10:41:50.154Z,26.87
2023-04-24T10:44:18.084Z,25.74
2023-04-24T10:46:47.730Z,25.53
2023-04-24T10:49:15.714Z,25.56
2023-04-24T10:51:50.910Z,26.18
2023-04-24T10:54:28.248Z,26.26
2023-04-24T10:57:14.829Z,27.19
2023-04-24T10:59:42.802Z,24.53
2023-04-24T11:02:10.648Z,23.72
2023-04-24T11:05:00.908Z,24.18
2023-04-24T11:11:04.627Z,24.71
2023-04-24T11:42:31.650Z,22.63
2023-04-24T11:45:19.974Z,22.04
2023-04-24T11:48:09.262Z,20.99
2023-04-24T11:50:40.154Z,21.38
2023-04-24T11:53:08.081Z,22.22
2023-04-24T11:55:36.188Z,22.02
2023-04-24T11:58:04.033Z,22.62
2023-04-24T12:00:34.396Z,22.39
2023-04-24T12:03:08.823Z,23.11
2023-04-24T12:05:38.015Z,22.94
2023-04-24T12:08:08.764Z,24.30
2023-04-24T12:10:40.098Z,24.76
2023-04-24T12:13:10.508Z,24.99
2023-04-24T12:15:41.803Z,24.22
2023-04-24T12:18:12.552Z,24.39
2023-04-24T12:20:43.603Z,24.03
2023-04-24T12:23:14.762Z,23.64
2023-04-24T12:25:48.291Z,23.64
2023-04-24T12:28:19.565Z,23.61
2023-04-24T12:36:51.748Z,25.35
2023-04-24T12:39:37.073Z,25.88
2023-04-24T12:42:06.015Z,26.42
2023-04-24T12:44:54.086Z,26.16
2023-04-24T12:47:47.740Z,26.82
2023-04-24T12:50:22.484Z,25.77
2023-04-24T12:52:51.159Z,25.20
2023-04-24T12:55:27.939Z,23.14
2023-04-24T12:57:58.761Z,23.08
2023-04-24T13:00:29.888Z,22.96
2023-04-24T13:03:00.516Z,22.46
2023-04-24T13:05:28.730Z,22.48
2023-04-24T13:08:12.633Z,22.47
2023-04-24T13:10:51.401Z,21.99
2023-04-24T13:13:21.998Z,22.77
2023-04-24T13:15:52.604Z,23.90
2023-04-24T13:18:20.521Z,24.39
2023-04-24T13:20:48.468Z,24.77
2023-04-24T13:23:18.892Z,25.30
2023-04-24T13:25:54.619Z,25.91
2023-04-24T13:28:24.933Z,26.55
2023-04-24T13:31:00.376Z,27.21
2023-04-24T13:33:47.388Z,28.00
2023-04-24T13:36:15.454Z,28.75
2023-04-24T13:38:43.286Z,28.91
2023-04-24T13:41:33.791Z,29.17
2023-04-24T13:44:05.443Z,29.03
2023-04-24T13:46:33.634Z,29.06
2023-04-24T13:49:05.538Z,29.34
2023-04-24T13:51:36.433Z,30.20
2023-04-24T13:54:15.525Z,31.04
2023-04-24T13:56:43.385Z,32.06
2023-04-24T13:59:12.607Z,33.10
2023-04-24T14:01:43.920Z,33.52
2023-04-24T14:04:25.269Z,34.12
2023-04-24T14:06:59.207Z,35.57
2023-04-24T14:09:30.540Z,35.30
2023-04-24T14:11:58.434Z,36.12
2023-04-24T14:14:34.412Z,36.87
2023-04-24T14:17:18.081Z,38.17
2023-04-24T14:19:46.019Z,37.95
2023-04-24T14:22:22.886Z,39.56
2023-04-24T14:25:03.205Z,40.20
2023-04-24T14:27:30.989Z,40.74
2023-04-24T14:30:02.309Z,40.48
2023-04-24T14:32:50.518Z,41.72
2023-04-24T14:35:31.486Z,41.59
2023-04-24T14:37:59.963Z,42.41
2023-04-24T14:43:28.646Z,42.84
2023-04-24T14:45:56.416Z,43.11
2023-04-24T14:48:34.658Z,43.78
2023-04-24T14:51:05.610Z,43.10
2023-04-24T14:53:49.776Z,44.07
2023-04-24T14:56:21.231Z,44.72
2023-04-24T14:58:49.054Z,44.88
2023-04-24T15:01:17.963Z,45.61
2023-04-24T15:03:46.519Z,46.29
2023-04-24T15:06:37.610Z,45.94
2023-04-24T15:09:18.853Z,46.01
2023-04-24T15:11:46.920Z,46.16
2023-04-24T15:14:15.245Z,46.69
2023-04-24T15:16:43.086Z,46.53
2023-04-24T15:19:18.436Z,46.97
2023-04-24T15:21:53.846Z,46.49
2023-04-24T15:24:27.277Z,46.54
2023-04-24T15:27:00.590Z,46.18
2023-04-24T15:29:29.289Z,46.30
2023-04-24T15:31:57.109Z,45.89
2023-04-24T15:34:27.869Z,45.50
2023-04-24T15:36:55.825Z,45.44
2023-04-24T15:39:26.416Z,45.45
2023-04-24T15:41:57.139Z,45.49
2023-04-24T15:44:34.008Z,45.40
2023-04-24T15:47:02.489Z,45.38
2023-04-24T15:49:32.132Z,45.57
2023-04-24T15:52:00.042Z,45.73
2023-04-24T15:54:28.020Z,45.46
2023-04-24T15:56:55.835Z,45.95
2023-04-24T15:59:26.825Z,45.95
2023-04-24T16:01:55.834Z,46.24
2023-04-24T16:04:23.908Z,46.51
2023-04-24T16:06:51.890Z,46.96
2023-04-24T16:09:20.143Z,46.59
2023-04-24T16:11:48.067Z,47.21
2023-04-24T16:14:15.845Z,46.98
2023-04-24T16:16:44.117Z,47.35
2023-04-24T16:19:15.059Z,47.86
2023-04-24T16:21:42.984Z,47.86
2023-04-24T16:24:10.714Z,47.83
2023-04-24T16:26:40.812Z,48.01
2023-04-24T16:29:08.752Z,49.47
2023-04-24T16:31:36.678Z,49.00
2023-04-24T16:34:04.743Z,48.22
2023-04-24T16:36:32.580Z,49.03
2023-04-24T16:39:00.842Z,49.59
2023-04-24T16:41:28.639Z,50.33
2023-04-24T16:43:56.405Z,51.06
2023-04-24T16:46:24.782Z,51.45
2023-04-24T16:48:55.738Z,51.02
2023-04-24T16:51:26.257Z,50.98
2023-04-24T16:54:03.562Z,51.51
2023-04-24T16:56:31.478Z,51.18
2023-04-24T16:59:01.753Z,51.31
2023-04-24T17:01:29.771Z,51.32
2023-04-24T17:03:57.714Z,51.50
2023-04-24T17:06:26.185Z,51.49
2023-04-24T17:08:54.174Z,51.94
2023-04-24T17:11:21.981Z,52.52
2023-04-24T17:13:49.832Z,52.26
2023-04-24T17:16:17.796Z,52.24
2023-04-24T17:18:50.772Z,52.49
2023-04-24T17:21:24.149Z,52.84
2023-04-24T17:23:56.163Z,52.47
2023-04-24T17:26:26.309Z,52.46
2023-04-24T17:29:01.500Z,52.62
2023-04-24T17:31:29.451Z,52.61
2023-04-24T17:33:57.537Z,52.80
2023-04-24T17:36:34.751Z,52.72
2023-04-24T17:39:22.840Z,52.88
2023-04-24T17:41:51.354Z,53.02
2023-04-24T17:44:19.367Z,53.50
2023-04-24T17:46:47.456Z,54.40
2023-04-24T17:49:15.709Z,55.65
2023-04-24T17:51:43.562Z,54.83
2023-04-24T17:54:11.334Z,54.40
2023-04-24T17:56:48.435Z,55.43
2023-04-24T17:59:22.170Z,55.43
2023-04-24T18:01:53.049Z,56.46
2023-04-24T18:04:31.252Z,56.65
2023-04-24T18:07:19.138Z,56.68
2023-04-24T18:10:07.513Z,56.47
2023-04-24T18:12:35.409Z,56.54
2023-04-24T18:15:13.717Z,56.87
2023-04-24T18:17:44.972Z,56.65
2023-04-24T18:20:13.937Z,56.20
2023-04-24T18:22:45.697Z,56.11
2023-04-24T18:25:16.077Z,56.58
2023-04-24T18:27:51.401Z,56.71
2023-04-24T18:30:19.658Z,57.61
2023-04-24T18:32:50.547Z,56.81
2023-04-24T18:35:34.744Z,56.88
2023-04-24T18:38:22.772Z,56.74
2023-04-24T18:41:12.438Z,56.82
2023-04-24T18:43:43.609Z,57.32
2023-04-24T18:46:14.784Z,56.97
2023-04-24T18:48:43.480Z,57.07
2023-04-24T18:51:11.550Z,57.49
2023-04-24T18:54:12.035Z,57.70
2023-04-24T18:56:40.136Z,57.34
2023-04-24T18:59:08.184Z,57.32
2023-04-24T19:01:36.387Z,57.43
2023-04-24T19:07:26.212Z,57.42
2023-04-24T19:09:54.086Z,57.50
2023-04-24T19:12:45.482Z,57.47
2023-04-24T19:15:14.997Z,57.63
2023-04-24T19:17:43.609Z,58.03
2023-04-24T19:20:11.656Z,58.10
2023-04-24T19:22:39.592Z,57.75
2023-04-24T19:25:07.859Z,57.67
2023-04-24T19:27:44.835Z,57.84
2023-04-24T19:30:12.990Z,57.82
2023-04-24T19:32:40.830Z,58.02
2023-04-24T19:35:11.939Z,58.55
2023-04-24T19:37:40.752Z,58.34
2023-04-24T19:40:08.873Z,58.25
2023-04-24T19:42:43.948Z,58.29
2023-04-24T19:45:12.981Z,58.33
2023-04-24T19:47:41.033Z,58.48
2023-04-24T19:50:09.289Z,59.37
2023-04-24T19:52:39.933Z,59.13
2023-04-24T19:55:08.325Z,58.82
2023-04-24T19:57:36.336Z,59.20
2023-04-24T20:00:04.447Z,59.25
2023-04-24T20:02:33.321Z,59.18
2023-04-24T20:05:01.906Z,59.36
2023-04-24T20:07:30.132Z,59.36
2023-04-24T20:09:57.984Z,59.40
2023-04-24T20:12:25.893Z,59.43
2023-04-24T20:14:56.467Z,59.78
2023-04-24T20:17:24.250Z,60.11
2023-04-24T20:19:52.083Z,59.80
2023-04-24T20:22:20.233Z,60.14
2023-04-24T20:24:50.608Z,60.75
2023-04-24T20:27:18.410Z,60.32
2023-04-24T20:29:46.206Z,60.63
2023-04-24T20:32:13.926Z,60.54
2023-04-24T20:34:42.073Z,60.32
2023-04-24T20:37:10.032Z,60.63
2023-04-24T20:39:37.956Z,61.15
2023-04-24T20:42:05.839Z,61.71
2023-04-24T20:44:33.830Z,61.68
2023-04-24T20:47:01.611Z,61.01
2023-04-24T20:49:29.599Z,60.77
2023-04-24T20:51:59.962Z,60.84
2023-04-24T20:54:27.944Z,60.82
2023-04-24T20:56:55.896Z,60.93
2023-04-24T20:59:23.891Z,61.90
2023-04-24T21:01:51.744Z,61.15
2023-04-24T21:04:19.661Z,61.39
2023-04-24T21:06:47.469Z,61.37
2023-04-24T21:09:15.202Z,61.31
2023-04-24T21:11:43.319Z,61.14
2023-04-24T21:14:11.160Z,61.14
2023-04-24T21:16:39.084Z,61.73
2023-04-24T21:19:07.001Z,61.38
2023-04-24T21:21:34.797Z,61.83
2023-04-24T21:24:02.494Z,61.77
2023-04-24T21:26:30.432Z,61.83
2023-04-24T21:28:58.235Z,62.02
2023-04-24T21:31:29.100Z,62.25
2023-04-24T21:33:56.901Z,62.24
2023-04-24T21:36:24.707Z,63.28
2023-04-24T21:38:52.581Z,62.85
2023-04-24T21:41:20.504Z,63.05
2023-04-24T21:43:51.198Z,62.27
2023-04-24T21:46:19.392Z,62.27
2023-04-24T21:48:47.397Z,62.57
2023-04-24T21:51:15.135Z,63.33
2023-04-24T21:53:48.895Z,65.17
2023-04-24T21:56:24.552Z,65.67
2023-04-24T21:58:53.941Z,66.40
2023-04-24T22:01:33.610Z,66.53
2023-04-24T22:04:15.567Z,64.74
2023-04-24T22:06:50.642Z,65.35
2023-04-24T22:09:24.676Z,66.15
2023-04-24T22:12:17.417Z,73.44
2023-04-24T22:14:53.258Z,74.15
2023-04-24T22:17:23.648Z,75.45
2023-04-24T22:19:54.228Z,76.65
2023-04-24T22:22:22.027Z,78.36
2023-04-24T22:24:50.056Z,78.75
2023-04-24T22:27:17.950Z,78.64
2023-04-24T22:29:57.430Z,80.10
2023-04-24T22:32:27.808Z,80.51
2023-04-24T22:34:55.684Z,80.98
2023-04-24T22:37:23.430Z,82.10
2023-04-24T22:39:51.824Z,82.73
2023-04-24T22:42:32.577Z,82.31
2023-04-24T22:45:13.429Z,82.15
2023-04-24T22:47:44.237Z,82.80
2023-04-24T22:50:12.132Z,83.87
2023-04-24T22:52:40.154Z,83.38
2023-04-24T22:55:08.347Z,83.10
2023-04-24T22:57:45.330Z,82.96
2023-04-24T23:00:13.295Z,83.53
2023-04-24T23:02:41.444Z,83.34
2023-04-24T23:05:16.978Z,83.61
2023-04-24T23:07:44.787Z,83.63
2023-04-24T23:10:12.545Z,83.62
2023-04-24T23:12:42.775Z,83.60
2023-04-24T23:15:10.977Z,83.75
2023-04-24T23:17:44.087Z,83.85
2023-04-24T23:20:12.152Z,83.71
2023-04-24T23:22:40.112Z,83.88
2023-04-24T23:25:08.073Z,84.26
2023-04-24T23:27:35.853Z,84.17
2023-04-24T23:30:04.357Z,84.62
2023-04-24T23:32:32.468Z,84.74
2023-04-24T23:35:00.221Z,84.53
2023-04-24T23:37:28.254Z,84.20
2023-04-24T23:39:56.535Z,84.56
2023-04-24T23:42:24.242Z,84.42
2023-04-24T23:44:59.858Z,84.13
2023-04-24T23:47:27.784Z,83.95
2023-04-24T23:49:55.747Z,83.95
2023-04-24T23:52:23.896Z,83.66
2023-04-24T23:54:51.731Z,84.26
2023-04-24T23:57:22.714Z,83.77
2023-04-24T23:59:50.714Z,83.79
